createdAt,value
2022-08-01T00:00:08.954Z,99305.16
2022-08-01T00:02:36.657Z,99312.75
2022-08-01T00:05:03.670Z,99304.31
2022-08-01T00:07:30.276Z,99301.56
2022-08-01T00:09:56.937Z,99292.53
2022-08-01T00:12:23.410Z,99290.44
2022-08-01T00:14:50.185Z,99292.97
2022-08-01T00:17:16.872Z,99285.47
2022-08-01T00:19:43.381Z,99287.09
2022-08-01T00:22:10.323Z,99285.41
2022-08-01T00:24:37.004Z,99286.28
2022-08-01T00:27:03.666Z,99278.72
2022-08-01T00:30:09.952Z,99282.31
2022-08-01T00:32:16.947Z,99287.13
2022-08-01T00:34:43.655Z,99282.94
2022-08-01T00:37:10.137Z,99282.75
2022-08-01T00:39:40.798Z,99284.66
2022-08-01T00:42:08.993Z,99290.94
2022-08-01T00:44:36.039Z,99282.53
2022-08-01T00:47:03.776Z,99275.81
2022-08-01T00:49:30.975Z,99289.22
2022-08-01T00:51:59.294Z,99291.97
2022-08-01T00:54:28.116Z,99283.19
2022-08-01T00:56:55.688Z,99283.81
2022-08-01T00:59:23.531Z,99278.34
2022-08-01T01:01:52.650Z,99290.13
2022-08-01T01:04:20.513Z,99281.72
2022-08-01T01:06:53.032Z,99285.09
2022-08-01T01:09:39.241Z,99280.88
2022-08-01T01:12:33.036Z,99284.47
2022-08-01T01:15:11.026Z,99293.06
2022-08-01T01:17:51.113Z,99282.56
2022-08-01T01:20:19.337Z,99285.91
2022-08-01T01:22:56.925Z,99282.78
2022-08-01T01:25:52.309Z,99294.75
2022-08-01T01:28:36.491Z,99285.72
2022-08-01T01:31:07.543Z,99286.75
2022-08-01T01:33:45.357Z,99296.41
2022-08-01T01:36:15.673Z,99286.34
2022-08-01T01:38:45.228Z,99290.94
2022-08-01T01:41:14.096Z,99294.31
2022-08-01T01:43:41.489Z,99294.72
2022-08-01T01:46:10.058Z,99304.16
2022-08-01T01:48:38.495Z,99296.38
2022-08-01T01:51:05.417Z,99299.78
2022-08-01T01:53:35.371Z,99301.44
2022-08-01T01:56:04.237Z,99296.38
2022-08-01T01:58:33.903Z,99294.53
2022-08-01T02:01:03.538Z,99294.53
2022-08-01T02:03:32.235Z,99298.06
2022-08-01T02:06:00.742Z,99302.28
2022-08-01T02:08:30.669Z,99304.38
2022-08-01T02:11:18.687Z,99304.81
2022-08-01T02:13:57.013Z,99320.31
2022-08-01T02:16:27.118Z,99319.03
2022-08-01T02:18:54.968Z,99328.88
2022-08-01T02:21:29.069Z,99331.59
2022-08-01T02:24:05.664Z,99337.22
2022-08-01T02:26:33.989Z,99332.38
2022-08-01T02:29:03.480Z,99343.00
2022-08-01T02:31:33.329Z,99351.72
2022-08-01T02:34:05.367Z,99360.72
2022-08-01T02:36:39.391Z,99353.75
2022-08-01T02:39:18.593Z,99357.75
2022-08-01T02:41:50.908Z,99352.69
2022-08-01T02:44:28.990Z,99364.84
2022-08-01T02:47:03.218Z,99354.31
2022-08-01T02:49:36.304Z,99361.44
2022-08-01T02:52:08.486Z,99347.22
2022-08-01T02:54:37.743Z,99356.25
2022-08-01T02:57:07.057Z,99362.06
2022-08-01T02:59:36.319Z,99355.13
2022-08-01T03:02:06.608Z,99356.41
2022-08-01T03:04:37.661Z,99369.75
2022-08-01T03:07:07.212Z,99368.13
2022-08-01T03:09:38.732Z,99359.75
2022-08-01T03:12:10.216Z,99353.09
2022-08-01T03:14:38.896Z,99361.03
2022-08-01T03:17:09.031Z,99363.97
2022-08-01T03:19:38.710Z,99363.75
2022-08-01T03:22:09.212Z,99365.44
2022-08-01T03:24:38.805Z,99360.59
2022-08-01T03:27:07.284Z,99367.28
2022-08-01T03:29:34.874Z,99359.34
2022-08-01T03:32:03.788Z,99355.56
2022-08-01T03:34:31.082Z,99361.69
2022-08-01T03:37:03.585Z,99362.06
2022-08-01T03:39:37.965Z,99364.81
2022-08-01T03:42:18.727Z,99360.38
2022-08-01T03:44:52.531Z,99364.59
2022-08-01T03:47:20.465Z,99361.88
2022-08-01T03:49:50.504Z,99363.75
2022-08-01T03:52:17.377Z,99369.84
2022-08-01T03:54:48.717Z,99370.03
2022-08-01T03:57:35.583Z,99361.44
2022-08-01T04:00:08.299Z,99371.47
2022-08-01T04:02:36.163Z,99362.72
2022-08-01T04:05:04.084Z,99367.38
2022-08-01T04:07:33.364Z,99365.63
2022-08-01T04:10:00.146Z,99357.66
2022-08-01T04:12:26.839Z,99370.63
2022-08-01T04:14:54.040Z,99366.69
2022-08-01T04:17:20.490Z,99370.03
2022-08-01T04:19:47.226Z,99367.75
2022-08-01T04:22:15.937Z,99374.63
2022-08-01T04:24:45.425Z,99370.03
2022-08-01T04:27:19.035Z,99367.75
2022-08-01T04:30:07.734Z,99376.38
2022-08-01T04:32:40.717Z,99372.81
2022-08-01T04:35:23.540Z,99376.13
2022-08-01T04:38:02.752Z,99378.41
2022-08-01T04:40:31.413Z,99378.66
2022-08-01T04:42:58.440Z,99381.38
2022-08-01T04:45:25.552Z,99387.66
2022-08-01T04:47:53.003Z,99381.38
2022-08-01T04:50:22.740Z,99388.28
2022-08-01T04:52:49.302Z,99392.25
2022-08-01T04:55:18.076Z,99382.63
2022-08-01T04:57:47.420Z,99388.31
2022-08-01T05:00:14.606Z,99386.22
2022-08-01T05:02:41.228Z,99388.56
2022-08-01T05:05:08.270Z,99388.16
2022-08-01T05:07:45.325Z,99378.53
2022-08-01T05:10:12.646Z,99385.66
2022-08-01T05:12:39.363Z,99386.31
2022-08-01T05:15:11.702Z,99384.84
2022-08-01T05:17:43.086Z,99392.22
2022-08-01T05:20:10.686Z,99384.03
2022-08-01T05:22:37.472Z,99392.44
2022-08-01T05:25:05.884Z,99386.63
2022-08-01T05:27:33.469Z,99390.63
2022-08-01T05:30:00.776Z,99386.78
2022-08-01T05:32:28.189Z,99393.50
2022-08-01T05:34:54.791Z,99391.00
2022-08-01T05:37:21.421Z,99392.50
2022-08-01T05:39:48.112Z,99397.59
2022-08-01T05:42:14.625Z,99392.59
2022-08-01T05:44:43.263Z,99396.41
2022-08-01T05:47:10.009Z,99394.72
2022-08-01T05:49:36.820Z,99394.09
2022-08-01T05:52:04.055Z,99396.22
2022-08-01T05:54:30.939Z,99393.03
2022-08-01T05:57:00.727Z,99391.59
2022-08-01T05:59:27.636Z,99392.88
2022-08-01T06:01:54.365Z,99400.44
2022-08-01T06:04:21.099Z,99396.66
2022-08-01T06:06:48.120Z,99406.91
2022-08-01T06:09:15.087Z,99400.22
2022-08-01T06:11:41.849Z,99394.97
2022-08-01T06:14:08.705Z,99405.25
2022-08-01T06:16:35.489Z,99410.91
2022-08-01T06:19:03.228Z,99415.75
2022-08-01T06:21:29.892Z,99410.47
2022-08-01T06:23:57.594Z,99421.19
2022-08-01T06:26:24.145Z,99427.59
2022-08-01T06:28:50.952Z,99420.06
2022-08-01T06:31:17.583Z,99426.53
2022-08-01T06:33:44.180Z,99438.47
2022-08-01T06:36:10.682Z,99423.75
2022-08-01T06:38:38.297Z,99428.41
2022-08-01T06:41:04.832Z,99422.75
2022-08-01T06:43:32.260Z,99427.81
2022-08-01T06:45:58.850Z,99435.34
2022-08-01T06:48:25.337Z,99428.25
2022-08-01T06:51:11.525Z,99434.34
2022-08-01T06:53:38.915Z,99441.88
2022-08-01T06:56:07.046Z,99436.88
2022-08-01T06:58:35.711Z,99433.53
2022-08-01T07:01:06.735Z,99421.63
2022-08-01T07:03:52.688Z,99416.38
2022-08-01T07:06:20.410Z,99427.72
2022-08-01T07:08:46.951Z,99421.63
2022-08-01T07:11:13.426Z,99426.72
2022-08-01T07:13:45.557Z,99414.13
2022-08-01T07:16:13.811Z,99401.28
2022-08-01T07:18:41.497Z,99399.13
2022-08-01T07:21:16.782Z,99401.16
2022-08-01T07:23:55.002Z,99398.22
2022-08-01T07:26:22.657Z,99401.25
2022-08-01T07:28:49.126Z,99401.03
2022-08-01T07:31:16.015Z,99402.53
2022-08-01T07:33:48.842Z,99406.28
2022-08-01T07:36:17.207Z,99409.59
2022-08-01T07:38:44.298Z,99398.91
2022-08-01T07:41:11.211Z,99400.31
2022-08-01T07:43:37.982Z,99395.31
2022-08-01T07:46:05.704Z,99396.13
2022-08-01T07:48:32.487Z,99398.44
2022-08-01T07:50:59.102Z,99393.56
2022-08-01T07:53:25.788Z,99391.28
2022-08-01T07:55:52.721Z,99393.59
2022-08-01T07:58:19.364Z,99401.97
2022-08-01T08:00:45.839Z,99393.34
2022-08-01T08:03:12.525Z,99398.66
2022-08-01T08:05:58.535Z,99396.91
2022-08-01T08:08:25.715Z,99395.59
2022-08-01T08:10:52.493Z,99393.59
2022-08-01T08:13:18.976Z,99397.66
2022-08-01T08:15:48.298Z,99391.91
2022-08-01T08:18:15.302Z,99386.59
2022-08-01T08:20:42.105Z,99394.09
2022-08-01T08:23:43.015Z,99387.69
2022-08-01T08:26:12.004Z,99397.47
2022-08-01T08:28:40.389Z,99387.34
2022-08-01T08:31:25.215Z,99392.09
2022-08-01T08:33:55.542Z,99391.38
2022-08-01T08:36:22.329Z,99398.69
2022-08-01T08:39:01.423Z,99398.41
2022-08-01T08:41:27.996Z,99398.03
2022-08-01T08:44:10.273Z,99399.41
2022-08-01T08:46:52.462Z,99399.31
2022-08-01T08:49:25.260Z,99389.91
2022-08-01T08:51:53.934Z,99392.66
2022-08-01T08:54:29.192Z,99402.66
2022-08-01T08:56:59.929Z,99412.13
2022-08-01T08:59:27.420Z,99403.78
2022-08-01T09:01:54.009Z,99397.19
2022-08-01T09:04:23.529Z,99396.63
2022-08-01T09:06:53.315Z,99394.19
2022-08-01T09:09:20.068Z,99396.94
2022-08-01T09:11:56.748Z,99399.00
2022-08-01T09:14:33.478Z,99404.50
2022-08-01T09:17:12.146Z,99406.56
2022-08-01T09:19:41.873Z,99400.81
2022-08-01T09:22:14.974Z,99411.19
2022-08-01T09:24:42.835Z,99410.78
2022-08-01T09:27:22.293Z,99411.88
2022-08-01T09:30:01.345Z,99411.88
2022-08-01T09:32:35.302Z,99418.72
2022-08-01T09:35:31.231Z,99416.28
2022-08-01T09:38:22.117Z,99416.22
2022-08-01T09:40:58.282Z,99415.97
2022-08-01T09:43:28.296Z,99403.72
2022-08-01T09:45:58.100Z,99415.75
2022-08-01T09:48:28.690Z,99416.41
2022-08-01T09:51:04.348Z,99415.59
2022-08-01T09:53:50.967Z,99406.50
2022-08-01T09:56:19.810Z,99410.22
2022-08-01T09:59:01.064Z,99404.41
2022-08-01T10:01:42.073Z,99402.88
2022-08-01T10:04:15.275Z,99407.44
2022-08-01T10:06:45.682Z,99394.59
2022-08-01T10:09:13.985Z,99392.88
2022-08-01T10:11:44.906Z,99387.38
2022-08-01T10:14:17.871Z,99386.47
2022-08-01T10:16:46.074Z,99401.44
2022-08-01T10:19:24.032Z,99398.44
2022-08-01T10:21:58.779Z,99396.44
2022-08-01T10:24:29.165Z,99394.16
2022-08-01T10:27:05.529Z,99394.56
2022-08-01T10:30:05.577Z,99373.53
2022-08-01T10:32:36.796Z,99387.16
2022-08-01T10:35:07.496Z,99390.72
2022-08-01T10:37:52.380Z,99377.88
2022-08-01T10:40:30.377Z,99388.13
2022-08-01T10:42:58.000Z,99379.50
2022-08-01T10:45:26.581Z,99371.63
2022-08-01T10:48:13.304Z,99371.84
2022-08-01T10:50:45.063Z,99369.72
2022-08-01T10:53:24.071Z,99368.38
2022-08-01T10:55:57.373Z,99365.53
2022-08-01T10:58:30.464Z,99364.59
2022-08-01T11:01:15.986Z,99360.16
2022-08-01T11:04:02.034Z,99355.06
2022-08-01T11:06:34.878Z,99356.69
2022-08-01T11:09:37.325Z,99358.22
2022-08-01T11:12:13.506Z,99356.78
2022-08-01T11:14:59.405Z,99359.91
2022-08-01T11:17:37.779Z,99353.59
2022-08-01T11:20:17.354Z,99352.09
2022-08-01T11:23:16.656Z,99365.81
2022-08-01T11:26:06.224Z,99362.22
2022-08-01T11:28:36.695Z,99363.69
2022-08-01T11:31:11.813Z,99361.53
2022-08-01T11:33:45.904Z,99361.41
2022-08-01T11:36:13.170Z,99353.09
2022-08-01T11:38:49.068Z,99353.06
2022-08-01T11:41:18.681Z,99351.16
2022-08-01T11:44:04.201Z,99350.53
2022-08-01T11:46:46.467Z,99348.44
2022-08-01T11:49:36.087Z,99347.34
2022-08-01T11:52:02.868Z,99342.94
2022-08-01T11:54:35.355Z,99340.94
2022-08-01T11:57:05.872Z,99338.34
2022-08-01T12:00:02.596Z,99331.91
2022-08-01T12:02:35.163Z,99322.63
2022-08-01T12:05:14.082Z,99330.72
2022-08-01T12:07:44.678Z,99335.53
2022-08-01T12:10:17.450Z,99338.91
2022-08-01T12:12:52.776Z,99354.19
2022-08-01T12:15:21.440Z,99352.25
2022-08-01T12:17:58.085Z,99351.38
2022-08-01T12:20:32.098Z,99357.75
2022-08-01T12:23:01.405Z,99353.13
2022-08-01T12:25:28.054Z,99360.38
2022-08-01T12:27:56.854Z,99358.25
2022-08-01T12:30:25.035Z,99355.47
2022-08-01T12:32:53.319Z,99358.56
2022-08-01T12:35:28.729Z,99362.66
2022-08-01T12:38:01.364Z,99358.84
2022-08-01T12:40:38.195Z,99361.25
2022-08-01T12:43:09.051Z,99354.28
2022-08-01T12:45:56.942Z,99357.19
2022-08-01T12:48:25.286Z,99354.28
2022-08-01T12:50:58.575Z,99349.88
2022-08-01T12:53:26.970Z,99355.94
2022-08-01T12:56:06.784Z,99349.50
2022-08-01T12:58:34.656Z,99363.25
2022-08-01T13:01:07.784Z,99351.66
2022-08-01T13:03:34.784Z,99359.66
2022-08-01T13:06:01.346Z,99361.38
2022-08-01T13:08:32.877Z,99359.34
2022-08-01T13:11:06.645Z,99360.53
2022-08-01T13:13:50.269Z,99355.38
2022-08-01T13:16:30.294Z,99351.38
2022-08-01T13:19:07.303Z,99349.63
2022-08-01T13:21:53.736Z,99350.63
2022-08-01T13:24:29.097Z,99346.75
2022-08-01T13:27:02.126Z,99352.22
2022-08-01T13:29:48.269Z,99345.44
2022-08-01T13:32:28.587Z,99344.16
2022-08-01T13:35:07.540Z,99345.53
2022-08-01T13:37:38.375Z,99338.72
2022-08-01T13:40:07.187Z,99342.94
2022-08-01T13:42:34.805Z,99343.72
2022-08-01T13:45:02.873Z,99346.13
2022-08-01T13:47:32.150Z,99348.19
2022-08-01T13:50:03.060Z,99345.59
2022-08-01T13:52:30.348Z,99345.66
2022-08-01T13:54:57.205Z,99345.44
2022-08-01T13:57:23.827Z,99338.44
2022-08-01T13:59:50.346Z,99343.53
2022-08-01T14:02:16.920Z,99341.16
2022-08-01T14:04:43.440Z,99344.09
2022-08-01T14:07:14.444Z,99340.09
2022-08-01T14:09:45.054Z,99340.59
2022-08-01T14:12:29.577Z,99337.75
2022-08-01T14:14:56.182Z,99343.75
2022-08-01T14:17:22.725Z,99342.09
2022-08-01T14:19:49.577Z,99339.88
2022-08-01T14:22:16.050Z,99345.25
2022-08-01T14:24:43.166Z,99347.19
2022-08-01T14:27:09.827Z,99351.53
2022-08-01T14:30:02.266Z,99345.88
2022-08-01T14:32:28.597Z,99348.84
2022-08-01T14:34:57.163Z,99353.75
2022-08-01T14:37:29.163Z,99361.00
2022-08-01T14:40:06.099Z,99355.75
2022-08-01T14:42:34.866Z,99350.72
2022-08-01T14:45:01.340Z,99347.41
2022-08-01T14:47:28.085Z,99342.97
2022-08-01T14:49:54.705Z,99339.97
2022-08-01T14:52:21.292Z,99341.78
2022-08-01T14:54:47.859Z,99339.28
2022-08-01T14:57:19.046Z,99341.63
2022-08-01T14:59:45.866Z,99337.47
2022-08-01T15:02:13.649Z,99339.13
2022-08-01T15:04:40.256Z,99335.91
2022-08-01T15:07:06.847Z,99340.31
2022-08-01T15:09:33.487Z,99329.13
2022-08-01T15:12:00.562Z,99332.25
2022-08-01T15:14:45.811Z,99330.97
2022-08-01T15:17:12.206Z,99336.59
2022-08-01T15:19:42.459Z,99342.31
2022-08-01T15:22:09.639Z,99337.03
2022-08-01T15:24:36.526Z,99333.91
2022-08-01T15:27:03.414Z,99333.53
2022-08-01T15:29:30.134Z,99344.91
2022-08-01T15:31:56.694Z,99340.28
2022-08-01T15:34:24.329Z,99343.19
2022-08-01T15:36:51.252Z,99347.13
2022-08-01T15:39:18.962Z,99341.78
2022-08-01T15:41:45.453Z,99341.53
2022-08-01T15:44:12.069Z,99349.63
2022-08-01T15:46:38.561Z,99346.31
2022-08-01T15:49:06.278Z,99348.03
2022-08-01T15:51:33.932Z,99351.97
2022-08-01T15:54:03.643Z,99351.94
2022-08-01T15:56:31.002Z,99347.75
2022-08-01T15:58:58.096Z,99348.56
2022-08-01T16:01:26.885Z,99339.13
2022-08-01T16:03:55.142Z,99349.13
2022-08-01T16:06:21.914Z,99337.19
2022-08-01T16:08:48.608Z,99338.03
2022-08-01T16:11:15.150Z,99344.97
2022-08-01T16:13:41.800Z,99341.63
2022-08-01T16:16:08.806Z,99341.34
2022-08-01T16:18:35.660Z,99334.84
2022-08-01T16:21:02.340Z,99335.25
2022-08-01T16:23:29.041Z,99334.91
2022-08-01T16:25:55.831Z,99337.50
2022-08-01T16:28:23.422Z,99340.97
2022-08-01T16:30:54.526Z,99342.69
2022-08-01T16:33:53.247Z,99341.16
2022-08-01T16:36:21.296Z,99340.59
2022-08-01T16:38:50.017Z,99341.34
2022-08-01T16:41:19.865Z,99345.81
2022-08-01T16:43:54.321Z,99338.88
2022-08-01T16:46:25.696Z,99339.34
2022-08-01T16:48:52.927Z,99338.06
2022-08-01T16:51:19.957Z,99337.38
2022-08-01T16:53:46.552Z,99331.63
2022-08-01T16:56:13.087Z,99335.22
2022-08-01T16:58:39.607Z,99329.25
2022-08-01T17:01:59.350Z,99329.72
2022-08-01T17:03:54.886Z,99333.53
2022-08-01T17:06:25.398Z,99336.88
2022-08-01T17:08:51.953Z,99343.19
2022-08-01T17:11:18.567Z,99345.72
2022-08-01T17:13:45.496Z,99337.72
2022-08-01T17:16:12.218Z,99336.38
2022-08-01T17:18:38.881Z,99336.41
2022-08-01T17:21:05.471Z,99335.56
2022-08-01T17:23:32.126Z,99340.56
2022-08-01T17:25:59.229Z,99341.78
2022-08-01T17:28:26.720Z,99350.25
2022-08-01T17:30:53.638Z,99347.97
2022-08-01T17:33:20.516Z,99346.69
2022-08-01T17:35:47.185Z,99345.13
2022-08-01T17:38:13.902Z,99347.16
2022-08-01T17:40:41.121Z,99345.97
2022-08-01T17:43:08.250Z,99340.69
2022-08-01T17:45:39.420Z,99349.22
2022-08-01T17:48:18.682Z,99349.31
2022-08-01T17:50:47.251Z,99343.69
2022-08-01T17:53:16.111Z,99352.38
2022-08-01T17:55:54.052Z,99356.53
2022-08-01T17:58:36.759Z,99357.00
2022-08-01T18:01:11.590Z,99357.13
2022-08-01T18:03:41.404Z,99360.22
2022-08-01T18:06:10.163Z,99371.06
2022-08-01T18:08:40.260Z,99365.16
2022-08-01T18:11:07.044Z,99370.28
2022-08-01T18:13:33.916Z,99371.22
2022-08-01T18:16:01.061Z,99367.75
2022-08-01T18:18:33.240Z,99367.75
2022-08-01T18:21:02.000Z,99370.78
2022-08-01T18:23:28.712Z,99370.91
2022-08-01T18:25:55.572Z,99369.44
2022-08-01T18:28:31.603Z,99374.94
2022-08-01T18:31:00.955Z,99379.59
2022-08-01T18:33:27.960Z,99387.09
2022-08-01T18:35:56.062Z,99380.19
2022-08-01T18:38:30.332Z,99387.31
2022-08-01T18:40:57.533Z,99390.69
2022-08-01T18:43:24.107Z,99393.13
2022-08-01T18:45:50.776Z,99397.19
2022-08-01T18:48:17.288Z,99400.31
2022-08-01T18:50:43.789Z,99395.28
2022-08-01T18:53:10.412Z,99399.47
2022-08-01T18:55:37.167Z,99399.22
2022-08-01T18:58:04.531Z,99406.28
2022-08-01T19:00:31.425Z,99406.75
2022-08-01T19:02:58.212Z,99414.34
2022-08-01T19:05:24.918Z,99415.75
2022-08-01T19:08:05.028Z,99409.97
2022-08-01T19:10:38.815Z,99418.44
2022-08-01T19:13:05.797Z,99420.66
2022-08-01T19:15:32.440Z,99426.59
2022-08-01T19:17:59.086Z,99432.34
2022-08-01T19:20:26.221Z,99429.19
2022-08-01T19:22:52.754Z,99429.66
2022-08-01T19:25:19.591Z,99437.69
2022-08-01T19:27:48.655Z,99447.59
2022-08-01T19:30:17.005Z,99453.50
2022-08-01T19:32:45.134Z,99460.91
2022-08-01T19:35:13.942Z,99466.16
2022-08-01T19:37:45.663Z,99471.44
2022-08-01T19:40:26.255Z,99476.47
2022-08-01T19:42:59.042Z,99469.13
2022-08-01T19:45:29.513Z,99472.47
2022-08-01T19:47:57.776Z,99475.66
2022-08-01T19:50:28.589Z,99479.41
2022-08-01T19:53:02.837Z,99481.69
2022-08-01T19:55:36.330Z,99484.34
2022-08-01T20:00:55.806Z,99491.25
2022-08-01T20:03:23.310Z,99493.31
2022-08-01T20:05:51.309Z,99497.28
2022-08-01T20:08:20.710Z,99498.50
2022-08-01T20:10:48.424Z,99495.09
2022-08-01T20:13:15.577Z,99501.53
2022-08-01T20:15:43.887Z,99506.72
2022-08-01T20:18:10.516Z,99496.78
2022-08-01T20:20:37.773Z,99501.16
2022-08-01T20:23:10.279Z,99498.63
2022-08-01T20:25:39.859Z,99501.97
2022-08-01T20:28:10.670Z,99508.84
2022-08-01T20:30:39.092Z,99512.38
2022-08-01T20:33:11.126Z,99516.91
2022-08-01T20:35:52.424Z,99510.56
2022-08-01T20:38:27.544Z,99515.13
2022-08-01T20:41:00.167Z,99515.91
2022-08-01T20:43:27.511Z,99520.19
2022-08-01T20:45:55.212Z,99507.78
2022-08-01T20:48:22.216Z,99513.75
2022-08-01T20:51:08.480Z,99523.81
2022-08-01T20:53:40.900Z,99531.16
2022-08-01T20:56:38.362Z,99524.75
2022-08-01T20:59:10.004Z,99536.03
2022-08-01T21:01:40.052Z,99540.41
2022-08-01T21:04:29.337Z,99544.38
2022-08-01T21:07:06.694Z,99542.41
2022-08-01T21:09:39.325Z,99547.94
2022-08-01T21:12:07.636Z,99555.63
2022-08-01T21:14:49.217Z,99557.88
2022-08-01T21:17:34.011Z,99549.81
2022-08-01T21:20:07.688Z,99549.72
2022-08-01T21:22:47.877Z,99548.63
2022-08-01T21:25:18.141Z,99556.53
2022-08-01T21:27:46.280Z,99555.78
2022-08-01T21:30:12.818Z,99554.75
2022-08-01T21:32:43.097Z,99552.56
2022-08-01T21:35:15.960Z,99559.78
2022-08-01T21:37:44.956Z,99560.06
2022-08-01T21:40:20.845Z,99564.81
2022-08-01T21:42:48.775Z,99558.78
2022-08-01T21:45:15.361Z,99565.44
2022-08-01T21:47:42.925Z,99569.34
2022-08-01T21:50:09.601Z,99568.22
2022-08-01T21:52:44.649Z,99562.00
2022-08-01T21:55:22.634Z,99564.06
2022-08-01T21:58:19.082Z,99567.66
2022-08-01T22:00:56.258Z,99572.13
2022-08-01T22:03:31.286Z,99564.88
2022-08-01T22:06:00.483Z,99565.94
2022-08-01T22:08:35.818Z,99564.97
2022-08-01T22:11:07.843Z,99571.63
2022-08-01T22:13:35.883Z,99574.50
2022-08-01T22:16:04.499Z,99567.56
2022-08-01T22:18:32.702Z,99572.97
2022-08-01T22:20:59.426Z,99573.34
2022-08-01T22:23:26.535Z,99578.25
2022-08-01T22:25:55.279Z,99578.63
2022-08-01T22:28:23.214Z,99578.50
2022-08-01T22:30:51.626Z,99582.75
2022-08-01T22:33:19.145Z,99578.72
2022-08-01T22:35:50.372Z,99588.25
2022-08-01T22:38:19.013Z,99587.44
2022-08-01T22:40:50.084Z,99587.13
2022-08-01T22:43:29.780Z,99580.00
2022-08-01T22:46:28.285Z,99588.28
2022-08-01T22:49:09.495Z,99585.09
2022-08-01T22:51:39.406Z,99594.41
2022-08-01T22:54:13.009Z,99600.19
2022-08-01T22:56:46.586Z,99596.31
2022-08-01T22:59:20.038Z,99596.50
2022-08-01T23:01:51.613Z,99599.16
2022-08-01T23:04:33.361Z,99603.09
2022-08-01T23:07:04.846Z,99598.00
2022-08-01T23:09:39.336Z,99601.88
2022-08-01T23:12:22.808Z,99608.50
2022-08-01T23:14:52.750Z,99606.78
2022-08-01T23:17:27.411Z,99603.41
2022-08-01T23:20:01.705Z,99606.81
2022-08-01T23:22:31.333Z,99607.00
2022-08-01T23:25:05.208Z,99602.75
2022-08-01T23:27:51.688Z,99611.22
2022-08-01T23:30:33.808Z,99607.00
2022-08-01T23:33:00.634Z,99606.66
2022-08-01T23:35:28.471Z,99608.69
2022-08-01T23:38:02.480Z,99607.84
2022-08-01T23:40:33.856Z,99616.13
2022-08-01T23:43:02.094Z,99607.34
2022-08-01T23:46:01.769Z,99603.25
2022-08-01T23:48:15.843Z,99608.81
2022-08-01T23:50:42.587Z,99611.88
2022-08-01T23:53:09.312Z,99609.50
2022-08-01T23:55:37.522Z,99609.16
2022-08-01T23:58:06.791Z,99617.41
